Time;durP1;ratioP1;P1;durP2;ratioP2;P2;SDS_P1;SDS_P2;PMS_P1;PMS_P2;Temp;Humidity;BMP_temperature;BMP_pressure;BME280_temperature;BME280_humidity;BME280_pressure;Samples;Min_cycle;Max_cycle;Signal;HPM_P1;HPM_P2
2022/03/28 00:01:11;;;;;;;10.05;6.07;;;9.10;99.90;;;;;;4993481;28;20026;-74
2022/03/28 00:03:37;;;;;;;13.38;6.07;;;9.10;99.90;;;;;;4993241;28;20030;-76
2022/03/28 00:06:03;;;;;;;11.50;6.20;;;9.10;99.90;;;;;;4993094;28;20019;-75
2022/03/28 00:08:29;;;;;;;14.43;6.90;;;9.10;99.90;;;;;;4993271;28;20444;-73
2022/03/28 00:10:55;;;;;;;14.27;7.38;;;9.10;99.90;;;;;;4992773;28;20054;-75
2022/03/28 00:13:21;;;;;;;12.48;7.78;;;9.10;99.90;;;;;;5015646;23;20054;-74
2022/03/28 00:15:46;;;;;;;15.60;8.10;;;9.10;99.90;;;;;;4993109;28;20025;-74
2022/03/28 00:18:12;;;;;;;16.75;9.25;;;9.10;99.90;;;;;;4993015;28;20018;-75
2022/03/28 00:20:39;;;;;;;24.92;12.20;;;9.10;99.90;;;;;;4993021;28;20073;-76
2022/03/28 00:23:04;;;;;;;20.83;11.90;;;9.10;99.90;;;;;;4992836;28;20077;-75
2022/03/28 00:25:30;;;;;;;21.17;12.90;;;9.00;99.90;;;;;;4991514;28;20014;-75
2022/03/28 00:27:56;;;;;;;24.15;13.70;;;9.00;99.90;;;;;;4993850;28;20026;-75
2022/03/28 00:30:21;;;;;;;25.52;14.35;;;9.00;99.90;;;;;;4993868;28;20031;-75
2022/03/28 00:32:47;;;;;;;30.00;15.40;;;9.00;99.90;;;;;;4993436;28;20034;-75
2022/03/28 00:35:12;;;;;;;26.67;15.65;;;9.00;99.90;;;;;;4993432;28;20030;-75
2022/03/28 00:37:41;;;;;;;31.90;16.33;;;9.00;99.90;;;;;;4993415;28;20399;-75
2022/03/28 00:40:08;;;;;;;33.58;16.50;;;9.00;99.90;;;;;;4993502;28;20026;-75
2022/03/28 00:42:34;;;;;;;31.92;17.17;;;9.00;99.90;;;;;;4993392;28;20105;-75
2022/03/28 00:45:00;;;;;;;32.08;17.92;;;8.90;99.90;;;;;;4993467;28;20101;-75
2022/03/28 00:47:25;;;;;;;30.83;17.42;;;8.90;99.90;;;;;;4993253;28;20108;-75
2022/03/28 00:49:51;;;;;;;36.38;18.55;;;8.80;99.90;;;;;;4993254;28;20109;-74
2022/03/28 00:52:17;;;;;;;38.25;20.15;;;8.80;99.90;;;;;;4993488;28;20027;-75
2022/03/28 00:54:42;;;;;;;40.20;21.83;;;8.80;99.90;;;;;;4993116;28;20546;-74
2022/03/28 00:57:08;;;;;;;41.38;21.48;;;8.80;99.90;;;;;;4993434;28;20037;-75
2022/03/28 00:59:35;;;;;;;45.55;22.23;;;8.80;99.90;;;;;;4992992;28;20023;-75
2022/03/28 01:02:02;;;;;;;39.45;21.95;;;8.80;99.90;;;;;;4993223;28;20027;-75
2022/03/28 01:04:28;;;;;;;40.05;22.45;;;8.80;99.90;;;;;;4992925;28;20034;-75
2022/03/28 01:06:54;;;;;;;44.03;23.58;;;8.80;99.90;;;;;;4992681;28;20468;-73
2022/03/28 01:09:20;;;;;;;52.10;26.60;;;8.80;99.90;;;;;;4992565;28;20029;-74
2022/03/28 01:11:48;;;;;;;54.67;26.95;;;8.80;99.90;;;;;;4993021;28;20530;-75
2022/03/28 01:14:14;;;;;;;53.10;29.42;;;8.70;99.90;;;;;;4993122;28;20089;-74
2022/03/28 01:19:24;;;;;;;55.33;31.67;;;8.70;99.90;;;;;;4993099;28;20337;-75
2022/03/28 01:21:51;;;;;;;50.38;29.48;;;8.60;99.90;;;;;;4993174;28;20419;-74
2022/03/28 01:24:17;;;;;;;53.95;31.80;;;8.60;99.90;;;;;;4993302;28;20078;-74
2022/03/28 01:26:43;;;;;;;58.83;32.47;;;8.60;99.90;;;;;;4993413;28;20031;-73
2022/03/28 01:29:08;;;;;;;54.80;32.10;;;8.60;99.90;;;;;;5004529;28;20029;-74
2022/03/28 01:31:38;;;;;;;54.60;33.13;;;8.70;99.90;;;;;;5005848;28;20022;-75
2022/03/28 01:34:04;;;;;;;51.50;31.38;;;8.70;99.90;;;;;;4999069;28;20026;-76
2022/03/28 01:36:30;;;;;;;48.78;31.90;;;8.70;99.90;;;;;;4988921;28;20045;-75
2022/03/28 01:38:55;;;;;;;53.22;31.42;;;8.60;99.90;;;;;;4993555;28;20062;-76
2022/03/28 01:41:21;;;;;;;47.90;31.30;;;8.60;99.90;;;;;;4993065;28;20073;-76
2022/03/28 01:43:46;;;;;;;44.35;29.15;;;8.70;99.90;;;;;;4992577;28;20038;-76
2022/03/28 01:46:12;;;;;;;44.85;29.02;;;8.60;99.90;;;;;;4992178;28;20376;-76
2022/03/28 01:48:37;;;;;;;46.50;30.00;;;8.60;99.90;;;;;;4992810;28;20034;-76
2022/03/28 01:51:03;;;;;;;43.85;27.45;;;8.60;99.90;;;;;;4992666;28;20042;-76
2022/03/28 01:53:28;;;;;;;41.70;26.10;;;8.60;99.90;;;;;;4993117;28;20034;-76
2022/03/28 01:55:54;;;;;;;40.90;26.83;;;8.60;99.90;;;;;;4993480;28;20081;-76
2022/03/28 01:58:19;;;;;;;40.70;26.38;;;8.60;99.90;;;;;;4991439;28;20050;-75
2022/03/28 02:00:45;;;;;;;44.95;25.83;;;8.60;99.90;;;;;;4998640;28;20046;-76
2022/03/28 02:03:11;;;;;;;44.97;28.30;;;8.50;99.90;;;;;;4997308;28;20352;-76
2022/03/28 02:05:36;;;;;;;50.05;28.17;;;8.50;99.90;;;;;;4994683;28;20026;-76
2022/03/28 02:08:02;;;;;;;45.15;28.48;;;8.50;99.90;;;;;;4990861;28;20033;-76
2022/03/28 02:10:28;;;;;;;48.92;28.98;;;8.50;99.90;;;;;;4992133;28;20146;-76
2022/03/28 02:12:53;;;;;;;49.17;29.90;;;8.50;99.90;;;;;;4992916;28;20066;-75
2022/03/28 02:15:20;;;;;;;53.28;32.55;;;8.40;99.90;;;;;;4993002;28;20038;-76
2022/03/28 02:17:46;;;;;;;55.50;33.78;;;8.40;99.90;;;;;;4994557;28;20037;-77
2022/03/28 02:20:13;;;;;;;58.08;33.53;;;8.40;99.90;;;;;;4995767;28;20101;-76
2022/03/28 02:22:40;;;;;;;54.08;34.13;;;8.40;99.90;;;;;;4996427;28;20061;-76
2022/03/28 02:25:07;;;;;;;51.65;31.65;;;8.40;99.90;;;;;;4994850;28;20479;-75
2022/03/28 02:27:33;;;;;;;51.08;30.10;;;8.50;99.90;;;;;;4995878;28;20525;-77
2022/03/28 02:29:59;;;;;;;45.40;27.27;;;8.40;99.90;;;;;;4995909;28;20057;-75
2022/03/28 02:32:25;;;;;;;36.92;21.42;;;8.50;99.90;;;;;;4994616;28;20054;-75
2022/03/28 02:34:50;;;;;;;20.98;12.13;;;8.50;99.90;;;;;;4980386;28;20451;-75
2022/03/28 02:37:16;;;;;;;19.88;10.55;;;8.50;99.90;;;;;;4977707;28;20109;-75
2022/03/28 02:39:42;;;;;;;20.50;8.75;;;8.40;99.90;;;;;;4976187;28;20023;-74
2022/03/28 02:42:07;;;;;;;17.63;8.98;;;8.40;99.90;;;;;;4976550;28;20085;-75
2022/03/28 02:44:33;;;;;;;14.82;8.10;;;8.30;99.90;;;;;;4992531;28;20475;-75
2022/03/28 02:46:59;;;;;;;15.85;8.43;;;8.20;99.90;;;;;;4995615;28;20033;-75
2022/03/28 02:49:24;;;;;;;20.42;10.85;;;8.10;99.90;;;;;;4995681;28;20029;-75
2022/03/28 02:51:50;;;;;;;20.15;11.10;;;8.10;99.90;;;;;;4995352;28;20383;-75
2022/03/28 02:54:16;;;;;;;24.67;11.60;;;8.10;99.90;;;;;;4995346;28;20109;-75
2022/03/28 02:56:41;;;;;;;25.38;12.85;;;8.00;99.90;;;;;;4995071;28;20073;-75
2022/03/28 02:59:07;;;;;;;24.77;14.45;;;8.00;99.90;;;;;;4995105;28;20387;-74
2022/03/28 03:01:34;;;;;;;27.58;14.90;;;8.00;99.90;;;;;;4995262;28;20169;-75
2022/03/28 03:03:59;;;;;;;26.23;13.48;;;7.90;99.90;;;;;;4994194;28;20030;-75
2022/03/28 03:06:25;;;;;;;18.08;10.43;;;7.90;99.90;;;;;;4996059;28;20019;-75
2022/03/28 03:08:51;;;;;;;18.95;9.40;;;7.80;99.90;;;;;;4995510;28;20022;-75
2022/03/28 03:11:17;;;;;;;15.95;8.98;;;7.80;99.90;;;;;;4995164;28;20031;-74
2022/03/28 03:13:42;;;;;;;18.92;8.30;;;7.80;99.90;;;;;;4993827;28;20038;-74
2022/03/28 03:16:08;;;;;;;17.83;9.20;;;7.70;99.90;;;;;;4995254;28;20040;-74
2022/03/28 03:18:33;;;;;;;15.85;8.18;;;7.70;99.90;;;;;;4997826;28;20022;-74
2022/03/28 03:20:59;;;;;;;18.00;9.93;;;7.80;99.90;;;;;;5003445;28;20030;-75
2022/03/28 03:23:25;;;;;;;17.42;8.88;;;7.80;99.90;;;;;;5008270;28;20049;-74
2022/03/28 03:25:51;;;;;;;19.95;10.27;;;7.80;99.90;;;;;;5008724;28;20064;-74
2022/03/28 03:28:16;;;;;;;20.70;10.00;;;7.80;99.90;;;;;;5004993;28;20019;-74
2022/03/28 03:30:43;;;;;;;17.08;9.00;;;7.80;99.90;;;;;;5007144;28;20031;-74
2022/03/28 03:33:08;;;;;;;16.77;9.65;;;7.80;99.90;;;;;;5010620;28;20480;-75
2022/03/28 03:35:34;;;;;;;22.60;10.55;;;7.80;99.90;;;;;;5003928;28;20045;-74
2022/03/28 03:38:00;;;;;;;24.38;10.45;;;7.90;99.90;;;;;;5004436;28;20121;-74
2022/03/28 03:40:26;;;;;;;17.10;10.68;;;8.00;99.90;;;;;;5006421;28;20027;-74
2022/03/28 03:42:51;;;;;;;22.25;11.48;;;8.00;99.90;;;;;;5001752;28;20033;-74
2022/03/28 03:45:17;;;;;;;21.20;10.82;;;8.00;99.90;;;;;;5002106;28;20069;-75
2022/03/28 03:47:42;;;;;;;17.58;10.40;;;8.00;99.90;;;;;;4997878;28;20097;-75
2022/03/28 03:50:08;;;;;;;26.92;11.88;;;8.00;99.90;;;;;;4995576;28;20093;-75
2022/03/28 03:52:34;;;;;;;27.92;13.13;;;8.00;99.90;;;;;;4994641;28;20077;-75
2022/03/28 03:55:00;;;;;;;21.10;11.55;;;8.00;99.90;;;;;;4994323;28;20131;-75
2022/03/28 03:57:26;;;;;;;24.23;13.25;;;8.00;99.90;;;;;;4992763;28;20030;-75
2022/03/28 03:59:51;;;;;;;22.73;12.27;;;8.10;99.90;;;;;;4994582;28;20031;-75
2022/03/28 04:02:17;;;;;;;26.90;13.00;;;8.10;99.90;;;;;;4993208;28;20034;-75
2022/03/28 04:04:43;;;;;;;20.83;11.57;;;8.20;99.90;;;;;;4994791;28;20391;-76
2022/03/28 04:07:09;;;;;;;20.80;10.23;;;8.20;99.90;;;;;;4994267;28;20498;-75
2022/03/28 04:09:35;;;;;;;25.65;12.07;;;8.20;99.90;;;;;;4994745;28;20133;-74
2022/03/28 04:12:00;;;;;;;24.83;10.68;;;8.10;99.90;;;;;;4994333;28;20533;-73
2022/03/28 04:14:26;;;;;;;15.55;10.00;;;8.20;99.90;;;;;;4994082;28;20046;-74
2022/03/28 04:16:51;;;;;;;15.20;8.60;;;8.10;99.90;;;;;;4993666;28;20495;-74
2022/03/28 04:19:17;;;;;;;13.05;8.07;;;8.00;99.90;;;;;;4995731;28;20069;-74
2022/03/28 04:21:43;;;;;;;17.92;7.55;;;8.00;99.90;;;;;;4997187;28;20030;-73
2022/03/28 04:24:09;;;;;;;12.50;6.95;;;7.90;99.90;;;;;;5002227;28;20555;-75
2022/03/28 04:26:35;;;;;;;12.23;6.80;;;7.80;99.90;;;;;;5002534;28;20062;-73
2022/03/28 04:29:00;;;;;;;11.63;6.53;;;7.90;99.90;;;;;;5002322;28;20018;-76
2022/03/28 04:31:26;;;;;;;11.75;5.72;;;7.80;99.90;;;;;;4993930;28;20029;-74
2022/03/28 04:33:52;;;;;;;11.85;5.55;;;7.80;99.90;;;;;;4993486;28;20026;-75
2022/03/28 04:36:17;;;;;;;10.27;6.25;;;7.80;99.90;;;;;;4995303;28;20568;-74
2022/03/28 04:38:43;;;;;;;11.80;5.80;;;7.80;99.90;;;;;;4997761;28;20027;-77
2022/03/28 04:41:08;;;;;;;13.43;6.78;;;7.90;99.90;;;;;;4999339;28;20031;-75
2022/03/28 04:43:34;;;;;;;10.25;6.13;;;7.90;99.90;;;;;;5000538;28;20030;-75
2022/03/28 04:45:59;;;;;;;10.80;6.15;;;7.90;99.90;;;;;;4997824;28;20101;-75
2022/03/28 04:48:25;;;;;;;11.88;6.78;;;7.90;99.90;;;;;;4976120;28;20110;-75
2022/03/28 04:50:51;;;;;;;10.35;6.72;;;7.90;99.90;;;;;;4974373;28;20023;-75
2022/03/28 04:53:17;;;;;;;11.88;6.32;;;7.90;99.90;;;;;;4994010;28;20031;-75
2022/03/28 04:55:43;;;;;;;12.40;6.85;;;8.00;99.90;;;;;;4993897;28;20076;-75
2022/03/28 04:58:08;;;;;;;12.65;6.35;;;8.00;99.90;;;;;;4996537;28;20097;-74
2022/03/28 05:00:34;;;;;;;9.75;5.78;;;8.00;99.90;;;;;;4996158;28;20069;-78
2022/03/28 05:03:00;;;;;;;10.02;6.53;;;8.00;99.90;;;;;;4984616;28;20038;-75
2022/03/28 05:05:25;;;;;;;13.38;6.65;;;8.10;99.90;;;;;;4996164;28;20118;-76
2022/03/28 05:07:51;;;;;;;11.52;6.28;;;8.10;99.90;;;;;;4993604;28;20026;-74
2022/03/28 05:10:16;;;;;;;11.65;5.80;;;8.00;99.90;;;;;;4994359;28;20523;-75
2022/03/28 05:12:42;;;;;;;14.80;5.38;;;8.00;99.90;;;;;;4993731;28;20098;-75
2022/03/28 05:15:08;;;;;;;5.53;3.90;;;8.00;99.90;;;;;;4993658;28;20082;-76
2022/03/28 05:17:34;;;;;;;6.00;3.42;;;7.90;99.90;;;;;;4993410;28;20110;-75
2022/03/28 05:20:00;;;;;;;4.78;3.20;;;7.80;99.90;;;;;;4993541;28;20074;-75
2022/03/28 05:22:26;;;;;;;5.22;3.08;;;7.70;99.90;;;;;;4992760;28;20143;-75
2022/03/28 05:24:53;;;;;;;5.53;3.38;;;7.70;99.90;;;;;;4997258;28;20150;-76
2022/03/28 05:27:19;;;;;;;9.65;3.80;;;7.70;99.90;;;;;;4996629;28;20054;-77
2022/03/28 05:29:45;;;;;;;6.68;4.10;;;7.60;99.90;;;;;;5000612;28;20030;-77
2022/03/28 05:32:11;;;;;;;5.03;3.30;;;7.70;99.90;;;;;;4998311;28;20113;-77
2022/03/28 05:34:37;;;;;;;5.15;3.35;;;7.70;99.90;;;;;;4994469;28;20116;-76
2022/03/28 05:37:08;;;;;;;4.47;3.28;;;7.70;99.90;;;;;;4992227;28;20026;-77
2022/03/28 05:39:34;;;;;;;5.82;3.35;;;7.70;99.90;;;;;;4993062;28;20101;-76
2022/03/28 05:42:01;;;;;;;5.32;2.50;;;7.70;99.90;;;;;;4993930;28;20522;-76
2022/03/28 05:44:27;;;;;;;5.47;2.50;;;7.80;99.90;;;;;;4997864;28;20030;-76
2022/03/28 05:46:53;;;;;;;5.32;2.30;;;7.80;99.90;;;;;;4994460;28;20102;-77
2022/03/28 05:49:27;;;;;;;6.10;2.67;;;7.70;99.90;;;;;;4999642;28;20046;-78
2022/03/28 05:51:53;;;;;;;;;;;7.70;99.90;;;;;;4994827;28;20026;-77
2022/03/28 05:54:19;;;;;;;5.65;2.30;;;7.70;99.90;;;;;;4994212;28;19921;-76
2022/03/28 05:56:46;;;;;;;4.45;2.60;;;7.80;99.90;;;;;;4998619;28;20034;-77
2022/03/28 05:59:12;;;;;;;3.97;2.53;;;7.70;99.90;;;;;;4996532;28;20057;-74
2022/03/28 06:01:38;;;;;;;4.50;1.55;;;7.70;99.90;;;;;;4997083;28;20176;-75
2022/03/28 06:04:04;;;;;;;3.78;1.50;;;7.80;99.90;;;;;;4995101;28;20547;-75
2022/03/28 06:06:31;;;;;;;4.07;2.03;;;7.70;99.90;;;;;;4994366;28;20027;-74
2022/03/28 06:08:57;;;;;;;3.35;2.00;;;7.70;99.90;;;;;;4994723;28;20026;-76
2022/03/28 06:11:22;;;;;;;4.70;2.70;;;7.70;99.90;;;;;;4997190;28;20029;-75
2022/03/28 06:13:48;;;;;;;4.28;2.70;;;7.70;99.90;;;;;;5003327;28;20089;-76
2022/03/28 06:16:13;;;;;;;4.30;2.42;;;7.70;99.90;;;;;;5007274;28;20074;-77
2022/03/28 06:18:39;;;;;;;5.88;2.47;;;7.80;99.90;;;;;;4997930;28;20383;-79
2022/03/28 06:21:07;;;;;;;4.40;2.80;;;7.80;99.90;;;;;;4999223;28;20034;-77
2022/03/28 06:23:36;;;;;;;4.57;2.65;;;7.80;99.90;;;;;;4997093;28;20117;-75
2022/03/28 06:26:01;;;;;;;5.40;3.05;;;7.90;99.90;;;;;;4997885;28;20030;-77
2022/03/28 06:28:27;;;;;;;3.65;2.47;;;8.00;99.90;;;;;;4997711;28;20547;-80
2022/03/28 06:30:53;;;;;;;4.95;2.10;;;8.00;99.90;;;;;;4995905;28;20388;-76
2022/03/28 06:33:18;;;;;;;2.95;2.03;;;8.10;99.90;;;;;;4998467;28;20030;-79
2022/03/28 06:35:45;;;;;;;6.75;3.30;;;8.10;99.90;;;;;;5003040;28;20417;-76
2022/03/28 06:38:11;;;;;;;1.52;1.25;;;8.10;99.90;;;;;;5000795;28;20026;-75
2022/03/28 06:40:37;;;;;;;2.95;2.13;;;8.10;99.90;;;;;;4999600;28;20026;-75
2022/03/28 06:43:03;;;;;;;3.35;1.77;;;8.10;99.90;;;;;;4996567;28;20506;-75
2022/03/28 06:45:28;;;;;;;4.15;2.38;;;8.20;99.90;;;;;;4998564;28;20049;-77
2022/03/28 06:47:55;;;;;;;1.98;1.55;;;8.20;99.90;;;;;;4996946;28;20030;-76
2022/03/28 06:50:23;;;;;;;3.33;1.92;;;8.30;99.90;;;;;;4996230;28;20022;-77
2022/03/28 06:52:49;;;;;;;5.10;1.70;;;8.30;99.90;;;;;;4996572;28;20447;-77
2022/03/28 06:55:15;;;;;;;1.92;1.73;;;8.30;99.90;;;;;;4996274;28;20030;-78
2022/03/28 06:57:41;;;;;;;2.92;1.73;;;8.30;99.90;;;;;;4994574;28;20386;-78
2022/03/28 07:00:10;;;;;;;1.65;1.45;;;8.30;99.90;;;;;;4996985;28;20097;-76
2022/03/28 07:02:36;;;;;;;6.00;2.05;;;8.30;99.90;;;;;;5002735;28;20022;-78
2022/03/28 07:05:03;;;;;;;4.35;2.78;;;8.40;99.90;;;;;;4999397;28;20019;-76
2022/03/28 07:07:43;;;;;;;6.00;3.67;;;8.50;99.90;;;;;;4997239;28;20064;-75
2022/03/28 07:10:11;;;;;;;5.72;3.40;;;8.40;99.90;;;;;;5002927;28;20023;-76
2022/03/28 07:12:37;;;;;;;4.97;3.47;;;8.40;99.90;;;;;;4998038;28;20060;-76
2022/03/28 07:15:03;;;;;;;8.52;5.00;;;8.30;99.90;;;;;;4964655;28;1028661;-75
2022/03/28 07:17:29;;;;;;;5.57;3.30;;;8.40;99.90;;;;;;5003158;28;20268;-76
2022/03/28 07:19:55;;;;;;;6.22;3.30;;;8.40;99.90;;;;;;5004523;28;20050;-76
2022/03/28 07:22:20;;;;;;;7.00;4.32;;;8.50;99.90;;;;;;5007337;28;20037;-78
2022/03/28 07:24:46;;;;;;;4.85;2.90;;;8.50;99.90;;;;;;5002194;28;20034;-77
2022/03/28 07:27:11;;;;;;;3.55;2.50;;;8.60;99.90;;;;;;4997778;28;20097;-77
2022/03/28 07:29:38;;;;;;;4.32;3.13;;;8.60;99.90;;;;;;5004589;28;20120;-76
2022/03/28 07:32:04;;;;;;;4.70;3.15;;;8.60;99.90;;;;;;4996359;28;20039;-77
2022/03/28 07:34:30;;;;;;;9.27;4.22;;;8.70;99.90;;;;;;4995294;28;20380;-76
2022/03/28 07:37:00;;;;;;;7.10;4.32;;;8.70;99.90;;;;;;4995586;28;20038;-77
2022/03/28 07:39:26;;;;;;;7.72;4.47;;;8.70;99.90;;;;;;4995797;28;20538;-76
2022/03/28 07:41:52;;;;;;;9.65;5.80;;;8.70;99.90;;;;;;4998430;28;20034;-77
2022/03/28 07:44:18;;;;;;;9.90;5.68;;;8.70;99.90;;;;;;4995493;28;20256;-75
2022/03/28 07:46:45;;;;;;;12.88;7.60;;;8.70;99.90;;;;;;4995852;28;20022;-76
2022/03/28 07:49:11;;;;;;;12.00;7.13;;;8.60;99.90;;;;;;4996742;28;20018;-78
2022/03/28 07:51:37;;;;;;;12.60;7.63;;;8.60;99.90;;;;;;4998246;28;20033;-77
2022/03/28 07:54:02;;;;;;;11.10;6.85;;;8.70;99.90;;;;;;5002231;28;20031;-77
2022/03/28 07:56:28;;;;;;;10.10;6.97;;;8.60;99.90;;;;;;5005430;28;20030;-77
2022/03/28 07:58:54;;;;;;;11.13;6.93;;;8.60;99.90;;;;;;5004226;28;20032;-77
2022/03/28 08:01:19;;;;;;;9.40;6.80;;;8.60;99.90;;;;;;5005194;28;20033;-77
2022/03/28 08:03:45;;;;;;;11.00;7.63;;;8.60;99.90;;;;;;5004851;28;20027;-77
2022/03/28 08:06:10;;;;;;;11.50;7.22;;;8.60;99.90;;;;;;4997403;28;20022;-76
2022/03/28 08:08:37;;;;;;;8.40;6.35;;;8.70;99.90;;;;;;4997125;28;20391;-75
2022/03/28 08:11:07;;;;;;;10.75;6.82;;;8.70;99.90;;;;;;4999705;28;20053;-77
2022/03/28 08:13:33;;;;;;;11.48;6.60;;;8.70;99.90;;;;;;4999803;28;20034;-77
2022/03/28 08:15:59;;;;;;;8.85;6.13;;;8.70;99.90;;;;;;4999801;28;20038;-76
2022/03/28 08:18:25;;;;;;;8.70;5.97;;;8.80;99.90;;;;;;4998397;28;20478;-77
2022/03/28 08:20:51;;;;;;;12.55;7.82;;;8.80;99.90;;;;;;5001684;28;20029;-76
2022/03/28 08:23:19;;;;;;;8.80;5.85;;;8.90;99.90;;;;;;4999434;28;20387;-75
2022/03/28 08:25:45;;;;;;;8.70;5.28;;;9.00;99.90;;;;;;4998455;28;20018;-77
2022/03/28 08:28:11;;;;;;;8.25;4.72;;;9.00;99.90;;;;;;4999990;28;20038;-76
2022/03/28 08:30:36;;;;;;;7.95;5.00;;;9.00;99.90;;;;;;4998041;28;20034;-75
2022/03/28 08:33:02;;;;;;;8.45;5.18;;;9.00;99.90;;;;;;4997997;28;20110;-76
2022/03/28 08:35:28;;;;;;;9.32;5.75;;;9.00;99.90;;;;;;4998893;28;20034;-75
2022/03/28 08:37:54;;;;;;;10.55;5.80;;;8.90;99.90;;;;;;4993713;28;20031;-76
2022/03/28 08:40:19;;;;;;;11.27;6.50;;;8.90;99.90;;;;;;4994165;28;20030;-76
2022/03/28 08:42:46;;;;;;;11.63;6.45;;;8.90;99.90;;;;;;4994394;28;20038;-75
2022/03/28 08:45:14;;;;;;;14.15;8.32;;;8.90;99.90;;;;;;4996424;28;20028;-76
2022/03/28 08:47:42;;;;;;;11.82;7.32;;;9.00;99.90;;;;;;4997539;28;20015;-77
2022/03/28 08:50:10;;;;;;;12.63;8.07;;;9.00;99.90;;;;;;4995826;28;20101;-76
2022/03/28 08:52:36;;;;;;;27.75;15.50;;;9.10;99.90;;;;;;4992983;28;20492;-74
2022/03/28 08:55:01;;;;;;;17.15;10.52;;;9.20;99.90;;;;;;4994039;28;20027;-76
2022/03/28 08:57:27;;;;;;;16.50;10.27;;;9.20;99.90;;;;;;4993918;28;20369;-75
2022/03/28 08:59:52;;;;;;;18.88;10.63;;;9.20;99.90;;;;;;4994627;28;20041;-75
2022/03/28 09:02:37;;;;;;;17.17;11.13;;;9.20;99.90;;;;;;4992367;28;20387;-76
2022/03/28 09:05:03;;;;;;;;;;;9.30;99.90;;;;;;4993652;28;20286;-74
2022/03/28 09:07:29;;;;;;;18.42;10.05;;;9.30;99.90;;;;;;4995029;28;19912;-76
2022/03/28 09:09:59;;;;;;;19.80;9.05;;;9.30;99.90;;;;;;4993900;28;20022;-76
2022/03/28 09:12:25;;;;;;;12.65;8.85;;;9.40;99.90;;;;;;4993263;28;20026;-75
2022/03/28 09:14:57;;;;;;;13.23;9.55;;;9.40;99.90;;;;;;4992137;28;20411;-76
2022/03/28 09:17:24;;;;;;;17.52;10.20;;;9.50;99.90;;;;;;4993585;28;20483;-76
2022/03/28 09:20:02;;;;;;;16.65;10.13;;;9.50;99.90;;;;;;4993081;28;20026;-74
2022/03/28 09:22:30;;;;;;;17.83;10.55;;;9.60;99.90;;;;;;4997513;28;20034;-75
2022/03/28 09:25:00;;;;;;;16.73;10.32;;;9.60;99.90;;;;;;4996870;28;20322;-76
2022/03/28 09:27:32;;;;;;;17.50;9.82;;;9.60;99.90;;;;;;4996157;28;20053;-76
2022/03/28 09:30:06;;;;;;;17.85;10.75;;;9.70;99.90;;;;;;4993440;28;20038;-76
2022/03/28 09:32:38;;;;;;;24.77;13.73;;;9.70;99.90;;;;;;4997352;28;20025;-76
2022/03/28 09:35:09;;;;;;;19.55;12.82;;;9.70;99.90;;;;;;4998488;28;20053;-76
2022/03/28 09:38:02;;;;;;;18.45;12.35;;;9.70;99.90;;;;;;4994078;28;20038;-77
2022/03/28 09:40:45;;;;;;;10.02;7.00;;;9.80;99.90;;;;;;4997314;28;20033;-77
2022/03/28 09:43:23;;;;;;;14.93;7.90;;;10.10;99.90;;;;;;4997373;28;20030;-77
2022/03/28 09:45:51;;;;;;;14.63;8.43;;;10.40;99.90;;;;;;4995000;28;20041;-76
2022/03/28 09:48:19;;;;;;;14.75;8.40;;;10.80;99.90;;;;;;4993593;28;20030;-73
2022/03/28 09:50:48;;;;;;;16.13;7.57;;;11.00;99.90;;;;;;4996479;28;20496;-76
2022/03/28 09:53:19;;;;;;;15.65;7.03;;;11.40;99.90;;;;;;4993705;28;20438;-75
2022/03/28 09:55:54;;;;;;;11.27;6.55;;;11.60;99.90;;;;;;4993352;28;20033;-75
2022/03/28 09:58:32;;;;;;;;;;;11.70;99.90;;;;;;4996728;28;20026;-77
2022/03/28 10:00:59;;;;;;;11.27;6.55;;;11.90;99.90;;;;;;4996828;28;19912;-78
2022/03/28 10:03:25;;;;;;;15.32;6.78;;;12.00;99.90;;;;;;4995654;28;20439;-78
2022/03/28 10:05:52;;;;;;;11.73;6.40;;;12.00;99.90;;;;;;4992934;28;20480;-74
2022/03/28 10:08:18;;;;;;;12.10;5.82;;;12.20;99.90;;;;;;4992609;28;20030;-75
2022/03/28 10:10:44;;;;;;;8.98;5.72;;;;;;;;;;4992140;28;20025;-75
2022/03/28 10:13:10;;;;;;;22.88;6.20;;;12.50;99.90;;;;;;4993117;28;20041;-75
2022/03/28 10:15:37;;;;;;;12.25;5.88;;;12.60;99.90;;;;;;4992590;28;20518;-75
2022/03/28 10:18:03;;;;;;;11.50;6.72;;;;;;;;;;4991911;28;20042;-76
2022/03/28 10:20:29;;;;;;;13.52;7.45;;;;;;;;;;4992399;28;20096;-76
2022/03/28 10:22:56;;;;;;;11.20;6.95;;;;;;;;;;4992390;28;20060;-78
2022/03/28 10:25:23;;;;;;;10.27;5.53;;;;;;;;;;4995353;28;20033;-74
2022/03/28 10:27:50;;;;;;;10.10;5.75;;;;;;;;;;4994003;28;20384;-76
2022/03/28 10:30:30;;;;;;;12.25;6.53;;;;;;;;;;4991960;28;20037;-75
2022/03/28 10:33:16;;;;;;;11.60;6.10;;;;;;;;;;4993410;28;20026;-76
2022/03/28 10:35:59;;;;;;;22.85;11.75;;;;;;;;;;4993643;28;20030;-75
2022/03/28 10:38:25;;;;;;;20.08;10.45;;;;;;;;;;4992337;28;20389;-75
2022/03/28 10:40:54;;;;;;;11.93;6.40;;;;;;;;;;4993053;28;20096;-76
2022/03/28 10:43:20;;;;;;;13.88;6.18;;;;;;;;;;4998034;28;20511;-75
2022/03/28 10:45:50;;;;;;;10.55;6.80;;;;;;;;;;4999214;28;20022;-76
2022/03/28 10:48:17;;;;;;;12.65;7.50;;;;;;;;;;4997389;28;20030;-76
2022/03/28 10:50:42;;;;;;;12.48;8.13;;;;;;;;;;4999021;28;20053;-75
2022/03/28 10:53:11;;;;;;;13.65;7.75;;;;;;;;;;4999362;28;20030;-77
2022/03/28 10:55:37;;;;;;;12.70;7.57;;;;;;;;;;4995361;28;20026;-77
2022/03/28 10:58:22;;;;;;;14.30;7.13;;;;;;;;;;4996460;28;20037;-77
2022/03/28 11:01:06;;;;;;;12.43;7.50;;;;;;;;;;4997488;28;20396;-77
2022/03/28 11:03:38;;;;;;;14.90;9.35;;;;;;;;;;4996039;28;20292;-76
2022/03/28 11:06:05;;;;;;;12.10;5.07;;;;;;;;;;5000503;28;20027;-77
2022/03/28 11:08:53;;;;;;;17.42;6.88;;;;;;;;;;5003151;28;20090;-76
2022/03/28 11:11:21;;;;;;;11.95;4.35;;;;;;;;;;5001040;28;20026;-76
2022/03/28 11:14:00;;;;;;;11.00;4.60;;;;;;;;;;5004945;28;20038;-77
2022/03/28 11:16:45;;;;;;;10.25;4.10;;;;;;;;;;5000757;28;20049;-75
2022/03/28 11:19:20;;;;;;;10.65;4.18;;;;;;;;;;5006950;28;20035;-75
2022/03/28 11:21:46;;;;;;;;;;;;;;;;;;5011212;28;20063;-77
2022/03/28 11:24:12;;;;;;;12.00;5.63;;;;;;;;;;5011005;28;20040;-76
2022/03/28 11:26:38;;;;;;;12.27;5.28;;;;;;;;;;5002223;28;20031;-78
2022/03/28 11:29:07;;;;;;;15.18;5.00;;;;;;;;;;4996088;28;20140;-76
2022/03/28 11:31:35;;;;;;;14.68;4.45;;;;;;;;;;4994122;28;20070;-76
2022/03/28 11:34:08;;;;;;;11.98;5.10;;;;;;;;;;4994864;28;20093;-76
2022/03/28 11:36:37;;;;;;;12.93;4.97;;;;;;;;;;4995211;28;20026;-73
2022/03/28 11:39:04;;;;;;;13.68;5.90;;;;;;;;;;4994899;28;20022;-75
2022/03/28 11:41:31;;;;;;;10.63;6.40;;;;;;;;;;4994952;28;20022;-74
2022/03/28 11:43:57;;;;;;;11.90;6.30;;;;;;;;;;4994785;28;20093;-74
2022/03/28 11:46:25;;;;;;;11.57;6.03;;;;;;;;;;4994743;28;20456;-75
2022/03/28 11:49:04;;;;;;;16.27;8.05;;;;;;;;;;4995641;28;20023;-72
2022/03/28 11:51:30;;;;;;;14.88;7.70;;;;;;;;;;5006499;28;20042;-73
2022/03/28 11:54:00;;;;;;;19.67;6.90;;;;;;;;;;4995679;28;20084;-77
2022/03/28 11:56:28;;;;;;;10.15;5.47;;;;;;;;;;4995224;28;20026;-75
2022/03/28 11:59:04;;;;;;;15.73;6.88;;;;;;;;;;4995326;28;20081;-77
2022/03/28 12:01:31;;;;;;;17.15;7.43;;;;;;;;;;4995402;28;20428;-76
2022/03/28 12:03:57;;;;;;;12.80;7.30;;;;;;;;;;4994453;28;20088;-74
2022/03/28 12:06:36;;;;;;;11.90;5.95;;;;;;;;;;4994201;28;20101;-74
2022/03/28 12:09:06;;;;;;;15.40;7.85;;;;;;;;;;4993082;28;20033;-75
2022/03/28 12:11:32;;;;;;;22.50;8.68;;;;;;;;;;4996197;28;20014;-73
2022/03/28 12:13:59;;;;;;;14.70;6.80;;;;;;;;;;4994029;28;20169;-76
2022/03/28 12:16:25;;;;;;;15.25;6.47;;;;;;;;;;4994043;28;20022;-74
2022/03/28 12:18:58;;;;;;;14.80;7.13;;;;;;;;;;5018156;22;20172;-74
2022/03/28 12:21:26;;;;;;;16.80;7.55;;;;;;;;;;5025242;28;20468;-72
2022/03/28 12:23:52;;;;;;;18.08;8.68;;;;;;;;;;5015610;28;20121;-74
2022/03/28 12:26:18;;;;;;;18.55;7.97;;;;;;;;;;5014688;28;20061;-75
2022/03/28 12:28:46;;;;;;;19.45;9.27;;;;;;;;;;5015451;28;20026;-77
2022/03/28 12:31:12;;;;;;;20.77;8.13;;;;;;;;;;4998828;28;20097;-78
2022/03/28 12:33:39;;;;;;;14.02;7.43;;;;;;;;;;5020081;28;20030;-79
2022/03/28 12:36:10;;;;;;;16.25;7.75;;;;;;;;;;5020259;28;20026;-76
2022/03/28 12:38:38;;;;;;;17.33;8.00;;;;;;;;;;5017824;28;20099;-77
2022/03/28 12:41:06;;;;;;;16.25;7.95;;;;;;;;;;5022049;28;20033;-82
2022/03/28 12:43:33;;;;;;;20.48;10.15;;;;;;;;;;5018653;28;20037;-76
2022/03/28 12:46:00;;;;;;;22.23;9.38;;;;;;;;;;5018526;28;20090;-76
2022/03/28 12:48:46;;;;;;;20.77;10.75;;;;;;;;;;5023130;28;20506;-77
2022/03/28 12:51:13;;;;;;;15.90;9.10;;;;;;;;;;5004490;28;20018;-77
2022/03/28 12:53:39;;;;;;;23.27;10.32;;;;;;;;;;5015545;28;20040;-78
2022/03/28 12:56:16;;;;;;;17.42;9.20;;;;;;;;;;4999176;28;20538;-76
2022/03/28 12:58:43;;;;;;;19.73;8.85;;;;;;;;;;5014940;28;20099;-76
2022/03/28 13:01:10;;;;;;;18.55;9.68;;;;;;;;;;5016978;28;20060;-77
2022/03/28 13:03:36;;;;;;;20.00;9.30;;;;;;;;;;5014624;28;20025;-77
2022/03/28 13:06:13;;;;;;;18.40;9.23;;;;;;;;;;5016147;28;20156;-77
2022/03/28 13:08:40;;;;;;;18.48;8.98;;;;;;;;;;4999691;28;20073;-76
2022/03/28 13:11:15;;;;;;;20.80;9.15;;;;;;;;;;5015118;28;20386;-78